Accueil
METAR-TAF:

METAR-TAF

Aéroports :

Andora, Italie

Capo Mele

latitude: 43-57N, longitude: 008-10E, altitude: 220 m

Observation

Le bulletin a été fait il y a 1 heure et 19 minutes, à 07:55 UTC
Vent 11 kt de nord
Température 26°C
Humidité 70%
Pression 1015 hPa
Visibilité 10 km ou plus
pas de nuages en-dessous de 1500 mètres et pas de cumulonimbus.

METAR: LIMU 190755Z 01011KT CAVOK 26/20 Q1015 RMK SCT SCT200 QUK 2 QUL 1 E VIS MAR 20 KM VIS MIN 9999

Heure: 11:14 (09:14 UTC)


TAF: absent

Observations et prévisions météorologiques de plus de 4000 aéroports (messages METAR et TAF).

Les stations disponibles sont représentées par des disques jaunes et rouges sur la carte.

Passer la souris dessus pour voir le nom de la station.

Cliquer dessus pour voir les observations et prévisions météorologiques.

Pour changer de carte: cliquez sur les boutons verts avec une croix noire pour zoomer, sur le bouton vert avec un tiret pour effectuer un zoom arrière, ou sur les flèches vertes pour les cartes adjacentes.


METAR-TAF: